Harden Gardens, CA

8:27 PM PST op 04 december 2016 (GMT -0800)
Dodge Ridge - Summit | | Change Station

Hoogte 8163 ft 38.19 °N, 119.93 °W | Updated 2 minutes ago

Clear
Helder
33.4 °F
Voelt als 33 °F
N
1.2
Wind Variabel Wind van NO
Gusts 3.4 mijl/u

Vandaag
Hoog -- | Laag -- °F
--% Kans op neerslag
Gisteren
Hoog -- | Laag -- °F
Precip. -- inches
Druk 30.09 inches
Zicht 10.0 mijlen
Wolken Helder
Gevoelstemperatuur 33 °F
Dauwpunt 4 °F
Vochtigheid 27%
Neerslag 0.00 inches
Dikte sneeuw Niet beschikbaar.
6:58 AM 4:39 PM
Wassende halvemaan, 28% visible
METAR KMMH 050415Z AUTO 27007G15KT 10SM CLR 09/M11 A3009 RMK AO2 T00901111
Druk 30.09 inches
Zicht 10.0 mijlen
Wolken Helder
Gevoelstemperatuur 33 °F
Dauwpunt 4 °F
Vochtigheid 27%
Neerslag 0.00 inches
Dikte sneeuw Niet beschikbaar.
6:58 AM 4:39 PM
Wassende halvemaan, 28% visible
METAR KMMH 050415Z AUTO 27007G15KT 10SM CLR 09/M11 A3009 RMK AO2 T00901111

10-Day Weather Forecast

Almanac

Astronomie

Dec. 04, 2016 Opkomst Ondergang
Werkelijke tijd
Burgerlijke schemering
Nautische schemering
Astronomische schemering
Maan
Golflengte van het zichtbare licht
Daglengte
Tomorrow will be .
, % of the Moon is Illuminated

Extremen vandaag

State Highs State Lows

Community

WunderPhotos

Upload Photos

1,955,759 foto’s ge-upload!

WunderBlog® & News

Nearby

Luchtkwaliteit

  Luchtkwaliteit LK-index Verontreinigende stof
Not available.

Dikte sneeuw

Station Depth Geometrische hoogte

Aardbevingen

Stad Distance Mag. Time & Date
Minimum magnitude displayed is 2.5.

Watertemperatuur langs de kust

Plaats Temperatuur

Stations

Nabije weerstations

Locatie station Temp. Gevoelstemperatuur Dauwpunt Vochtigheid Wind Precip. Hoogte Geactualiseerd Type
                   

Watches & Warnings

There are currently no watches in effect.